Latest Weather Observations for Camden

IDN60901

Issued at 1:32 am EDT Friday 6 March 2015 (issued every 10 minutes, with the page automatically refreshed every 10 minutes)

About weather observations | Map of Sydney area stations | Latest observations for Sydney area | Other Formats
Station Details ID: 068192 Name: CAMDEN AIRPORT AWS Lat: -34.04 Lon: 150.69 Height: 73.9 m
Data from the previous 72 hours. | See also: Recent months at Camden
Date/Time
EDT
Tmp

°C
App
Tmp
°C
Dew
Point
°C
Rel
Hum
%
Delta-T

°C
Wind Press
QNH
hPa
Press
MSL
hPa
Rain
since
9 am
mm
Dir
 
Spd
km/h
Gust
km/h
Spd
kts
Gust
kts
06/01:30am 12.5 12.5 9.9 84 1.3 CALM 0 0 0 0 1012.0 1011.8 0.0
06/01:00am 12.9 12.9 9.7 81 1.6 CALM 0 0 0 0 1012.4 1012.2 0.0
06/12:30am 13.6 13.5 9.6 77 2.1 CALM 0 0 0 0 1012.6 1012.4 0.0
 
Date/Time
EDT
Tmp

°C
App
Tmp
°C
Dew
Point
°C
Rel
Hum
%
Delta-T

°C
Wind Press
QNH
hPa
Press
MSL
hPa
Rain
since
9 am
mm
Dir
 
Spd
km/h
Gust
km/h
Spd
kts
Gust
kts
05/11:30pm 14.6 14.7 10.2 75 2.3 CALM 0 0 0 0 1013.1 1012.9 0.0
05/11:00pm 15.1 15.4 10.9 76 2.2 CALM 0 0 0 0 1013.2 1013.0 0.0
05/10:30pm 15.9 16.1 10.4 70 2.9 CALM 0 0 0 0 1013.2 1013.0 0.0
05/10:00pm 16.1 16.3 10.4 69 3.0 CALM 0 0 0 0 1013.3 1013.1 0.0
05/09:30pm 16.4 16.1 8.6 60 4.0 CALM 0 0 0 0 1013.1 1012.9 0.0
05/09:00pm 17.4 15.7 8.5 56 4.6 SSE 7 11 4 6 1012.8 1012.6 0.0
05/08:30pm 17.3 15.2 8.2 55 4.7 SE 9 13 5 7 1012.3 1012.1 0.0
05/08:00pm 17.8 15.1 7.5 51 5.2 SE 11 17 6 9 1011.7 1011.5 0.0
05/07:30pm 18.7 15.3 7.5 48 5.7 SSE 15 20 8 11 1011.2 1011.0 0.0
05/07:00pm 19.9 16.2 6.3 41 6.8 SE 15 20 8 11 1010.8 1010.6 0.0
05/06:30pm 20.8 17.7 7.1 41 7.0 ESE 13 20 7 11 1010.3 1010.1 0.0
05/05:30pm 21.8 17.6 8.3 42 7.1 SSE 20 32 11 17 1009.3 1009.0 0.0
05/05:00pm 22.4 18.0 8.9 42 7.2 SSE 22 33 12 18 1008.8 1008.5 0.0
05/04:30pm 23.2 18.6 9.6 42 7.4 SSE 24 35 13 19 1008.5 1008.2 0.0
05/04:00pm 23.8 20.5 10.8 44 7.3 SE 19 26 10 14 1008.4 1008.1 0.0
05/03:30pm 24.0 21.0 12.0 47 6.8 SE 19 26 10 14 1008.2 1007.9 0.0
05/03:00pm 27.8 25.7 8.1 29 10.7 SW 9 15 5 8 1007.9 1007.6 0.0
05/02:30pm 26.8 22.7 6.2 27 10.8 W 17 30 9 16 1007.9 1007.6 0.0
05/02:00pm 26.7 22.6 6.2 27 10.7 SW 17 24 9 13 1007.9 1007.6 0.0
05/01:30pm 26.1 20.8 6.7 29 10.2 SSW 24 37 13 20 1008.1 1007.8 0.0
05/01:00pm 26.2 21.2 6.3 28 10.4 SW 22 35 12 19 1008.2 1007.9 0.0
05/12:30pm 25.9 20.0 7.5 31 9.8 W 28 37 15 20 1008.1 1007.8 0.0
05/11:30am 24.9 19.2 6.6 31 9.5 SW 26 35 14 19 1008.3 1008.0 0.0
05/11:00am 24.2 17.8 6.9 33 9.0 SW 30 41 16 22 1008.0 1007.7 0.0
05/10:53am 23.3 17.0 5.7 32 8.9 SW 28 41 15 22 1008.0 1007.7 0.0
05/10:30am 22.8 19.9 8.1 39 7.8 SSW 13 17 7 9 1007.9 1007.6 0.0
05/10:00am 22.4 20.2 7.8 39 7.7 W 9 20 5 11 1007.1 1006.8 0.0
05/09:30am 21.6 19.6 8.8 44 6.8 W 9 13 5 7 1006.7 1006.4 0.0
05/09:00am 21.2 17.6 6.7 39 7.4 W 15 28 8 15 1006.4 1006.1 0.2
05/08:30am 20.6 17.5 7.2 42 6.9 W 13 19 7 10 1006.3 1006.0 0.2
05/08:00am 20.0 16.2 7.7 45 6.4 W 17 20 9 11 1005.9 1005.6 0.2
05/07:30am 19.2 15.0 7.6 47 6.0 W 19 24 10 13 1005.8 1005.5 0.2
05/07:01am 16.6 14.5 12.4 76 2.3 WSW 15 19 8 10 1005.5 1005.2 0.2
05/07:00am 16.6 14.5 12.4 76 2.3 WSW 15 19 8 10 1005.5 1005.2 0.2
05/06:45am 14.6 15.3 14.4 99 0.1 W 4 9 2 5 1005.2 1004.9 0.2
05/06:30am 14.9 16.0 14.7 99 0.1 NNW 2 9 1 5 1005.0 1004.7 0.2
05/06:29am 14.9 16.0 14.7 99 0.1 NW 2 9 1 5 1005.1 1004.8 0.2
05/05:30am 15.9 17.8 15.7 99 0.1 CALM 0 0 0 0 1004.7 1004.4 0.0
05/05:18am 16.5 17.5 16.3 99 0.1 SSW 6 11 3 6 1004.8 1004.5 0.0
05/05:16am 16.5 17.5 16.3 99 0.1 SSW 6 11 3 6 1004.8 1004.5 0.0
05/05:15am 16.5 17.5 16.3 99 0.1 SSW 6 11 3 6 1004.8 1004.5 0.0
05/05:11am 16.5 17.9 16.3 99 0.1 S 4 11 2 6 1004.8 1004.5 0.0
05/05:03am 16.3 17.6 16.1 99 0.1 SSW 4 9 2 5 1004.7 1004.4 0.0
05/05:01am 16.3 17.6 16.1 99 0.1 SSW 4 9 2 5 1004.7 1004.4 0.0
05/05:00am 16.3 18.0 16.1 99 0.1 SSW 2 9 1 5 1004.7 1004.4 0.0
05/04:53am 16.4 17.7 16.2 99 0.1 N 4 9 2 5 1004.8 1004.5 0.0
05/04:51am 16.2 17.4 16.0 99 0.1 N 4 9 2 5 1004.8 1004.5 0.0
05/04:30am 16.4 18.1 16.2 99 0.1 NE 2 7 1 4 1004.8 1004.5 0.0
05/04:00am 16.1 18.0 15.8 98 0.2 CALM 0 0 0 0 1005.2 1004.9 0.0
05/03:30am 16.6 18.7 16.3 98 0.2 CALM 0 0 0 0 1005.8 1005.5 0.0
05/03:00am 17.6 20.2 17.4 99 0.1 CALM 0 0 0 0 1006.1 1005.8 0.0
05/02:30am 17.4 19.5 17.1 98 0.2 WSW 2 6 1 3 1006.6 1006.3 0.0
05/02:00am 17.8 20.3 17.3 97 0.3 CALM 0 0 0 0 1006.9 1006.6 0.0
05/01:41am 18.3 21.1 18.0 98 0.2 CALM 0 0 0 0 1007.1 1006.8 0.0
05/01:30am 18.3 21.0 17.8 97 0.3 CALM 0 0 0 0 1007.1 1006.8 0.0
05/01:05am 18.3 20.9 17.5 95 0.5 CALM 0 0 0 0 1007.7 1007.4 0.0
05/01:00am 18.7 21.5 17.9 95 0.5 CALM 0 0 0 0 1007.7 1007.4 0.0
05/12:31am 19.1 22.0 18.3 95 0.5 CALM 0 0 0 0 1008.2 1007.9 0.0
05/12:30am 19.3 22.3 18.5 95 0.5 CALM 0 0 0 0 1008.2 1007.9 0.0
05/12:29am 19.4 22.5 18.6 95 0.5 CALM 0 0 0 0 1008.1 1007.8 0.0
05/12:24am 19.3 22.2 18.3 94 0.6 CALM 0 0 0 0 1008.2 1007.9 0.0
05/12:17am 19.4 22.4 18.4 94 0.6 CALM 0 0 0 0 1008.2 1007.9 0.0
05/12:14am 19.6 22.7 18.6 94 0.6 CALM 0 0 0 0 1008.2 1007.9 0.0
05/12:00am 19.6 22.6 18.4 93 0.7 CALM 0 0 0 0 1008.3 1008.0 0.0
 
Date/Time
EDT
Tmp

°C
App
Tmp
°C
Dew
Point
°C
Rel
Hum
%
Delta-T

°C
Wind Press
QNH
hPa
Press
MSL
hPa
Rain
since
9 am
mm
Dir
 
Spd
km/h
Gust
km/h
Spd
kts
Gust
kts
04/11:37pm 20.2 23.5 19.0 93 0.8 CALM 0 0 0 0 1008.5 1008.2 0.0
04/11:30pm 20.2 23.4 18.9 92 0.8 CALM 0 0 0 0 1008.6 1008.3 0.0
04/11:00pm 20.7 23.8 19.4 92 0.8 SSE 2 6 1 3 1009.0 1008.7 0.0
04/10:30pm 21.0 23.1 19.3 90 1.1 S 7 7 4 4 1009.3 1009.0 0.0
04/10:00pm 21.8 25.1 19.2 85 1.7 CALM 0 0 0 0 1009.2 1008.9 0.0
04/09:30pm 21.9 25.1 18.9 83 1.9 CALM 0 0 0 0 1009.2 1008.9 0.0
04/09:00pm 23.0 25.6 19.2 79 2.4 SE 4 6 2 3 1009.2 1008.9 0.0
04/08:30pm 23.2 25.1 18.9 77 2.7 ESE 7 9 4 5 1008.8 1008.5 0.0
04/08:00pm 23.9 25.7 18.8 73 3.2 ESE 7 13 4 7 1008.4 1008.1 0.0
04/07:30pm 24.9 26.1 19.0 69 3.8 E 11 15 6 8 1008.2 1007.9 0.0
04/07:00pm 26.0 26.7 18.9 65 4.6 ENE 13 20 7 11 1007.9 1007.6 0.0
04/06:30pm 27.2 27.5 18.8 60 5.4 ENE 15 20 8 11 1007.8 1007.5 0.0
04/06:00pm 28.0 27.6 19.0 58 5.8 ENE 19 26 10 14 1007.8 1007.5 0.0
04/05:30pm 29.5 30.1 18.6 52 7.0 ENE 13 20 7 11 1007.8 1007.5 0.0
04/05:00pm 29.8 30.1 17.9 48 7.6 NE 13 19 7 10 1008.0 1007.7 0.0
04/04:30pm 30.1 30.9 17.2 46 8.2 N 9 15 5 8 1008.2 1007.9 0.0
04/04:00pm 30.0 31.3 17.1 46 8.2 NE 6 17 3 9 1008.6 1008.3 0.0
04/03:30pm 29.5 30.7 17.3 47 7.7 N 7 13 4 7 1009.1 1008.8 0.0
04/03:00pm 29.6 31.7 18.1 50 7.4 NNW 4 13 2 7 1009.5 1009.2 0.0
04/02:35pm 28.8 30.2 17.7 51 7.1 NNW 7 13 4 7 1010.0 1009.7 0.0
04/02:30pm 29.6 31.5 19.0 53 6.9 NNW 7 13 4 7 1010.1 1009.9 0.0
04/02:21pm 29.3 31.0 18.1 51 7.2 ESE 6 13 3 7 1010.2 1010.0 0.0
04/02:00pm 29.2 32.3 19.5 56 6.3 NNE 2 11 1 6 1010.5 1010.3 0.0
04/01:30pm 27.4 28.6 17.3 54 6.4 NE 7 13 4 7 1011.1 1010.9 0.0
04/01:00pm 27.1 29.3 18.4 59 5.6 NNE 4 9 2 5 1011.6 1011.4 0.0
04/12:30pm 27.1 28.5 18.7 60 5.4 NNW 9 15 5 8 1012.0 1011.8 0.0
04/12:00pm 26.4 28.3 19.0 63 4.8 NNW 7 13 4 7 1012.7 1012.5 0.0
04/11:30am 25.8 27.7 18.5 64 4.7 NNE 6 15 3 8 1013.3 1013.1 0.0
04/11:00am 25.1 26.6 18.1 65 4.4 SSE 7 13 4 7 1013.7 1013.5 0.0
04/10:30am 24.3 26.1 18.2 68 3.8 SSE 6 9 3 5 1013.9 1013.7 0.0
04/10:00am 23.5 24.7 18.2 72 3.3 SSE 9 13 5 7 1014.1 1013.9 0.0
04/09:30am 22.9 24.3 17.8 73 3.2 S 7 9 4 5 1014.1 1013.9 0.0
04/09:00am 22.7 25.1 18.0 75 2.9 SW 2 7 1 4 1014.0 1013.8 0.0
04/08:30am 21.9 24.5 17.5 76 2.7 CALM 0 0 0 0 1013.6 1013.4 0.0
04/08:00am 20.8 23.5 17.8 83 1.9 CALM 0 0 0 0 1013.4 1013.2 0.0
04/07:30am 20.2 23.1 18.1 88 1.3 CALM 0 0 0 0 1013.3 1013.1 0.0
04/07:00am 19.6 22.2 17.4 87 1.3 CALM 0 0 0 0 1013.1 1012.9 0.0
04/06:30am 19.7 22.2 17.3 86 1.5 CALM 0 0 0 0 1012.8 1012.6 0.0
04/06:00am 20.0 22.8 18.0 88 1.2 CALM 0 0 0 0 1012.9 1012.7 0.0
04/05:30am 19.9 22.7 17.9 88 1.2 CALM 0 0 0 0 1012.9 1012.7 0.0
04/05:00am 19.9 22.7 17.9 88 1.2 CALM 0 0 0 0 1012.7 1012.5 0.0
04/04:30am 20.0 22.7 17.8 87 1.4 CALM 0 0 0 0 1013.1 1012.9 0.0
04/04:00am 20.0 22.6 17.6 86 1.5 CALM 0 0 0 0 1013.0 1012.8 0.0
04/03:30am 20.0 22.6 17.6 86 1.5 CALM 0 0 0 0 1013.2 1013.0 0.0
04/03:00am 19.9 22.7 17.9 88 1.2 CALM 0 0 0 0 1013.5 1013.3 0.0
04/02:30am 19.7 22.3 17.5 87 1.3 CALM 0 0 0 0 1013.8 1013.6 0.0
04/02:00am 19.5 22.1 17.5 88 1.2 CALM 0 0 0 0 1014.0 1013.8 0.0
04/01:30am 19.4 21.8 17.0 86 1.5 CALM 0 0 0 0 1014.2 1014.0 0.0
04/01:00am 19.4 21.7 16.8 85 1.6 CALM 0 0 0 0 1014.4 1014.2 0.0
04/12:30am 19.6 21.8 16.4 82 1.9 CALM 0 0 0 0 1014.5 1014.3 0.0
04/12:00am 19.9 21.0 16.5 81 2.1 SSW 6 7 3 4 1014.6 1014.4 0.0
 
Date/Time
EDT
Tmp

°C
App
Tmp
°C
Dew
Point
°C
Rel
Hum
%
Delta-T

°C
Wind Press
QNH
hPa
Press
MSL
hPa
Rain
since
9 am
mm
Dir
 
Spd
km/h
Gust
km/h
Spd
kts
Gust
kts
03/11:30pm 20.4 21.5 16.6 79 2.3 S 6 7 3 4 1014.8 1014.6 0.0
03/11:00pm 20.8 22.1 17.0 79 2.3 SSW 6 7 3 4 1015.0 1014.8 0.0
03/10:30pm 21.0 22.6 16.8 77 2.6 SSE 4 7 2 4 1014.9 1014.7 0.0
03/10:00pm 21.2 22.8 16.8 76 2.7 SSE 4 6 2 3 1015.1 1014.9 0.0
03/09:30pm 21.5 22.6 16.7 74 2.9 SSE 6 9 3 5 1015.0 1014.8 0.0
03/09:00pm 21.8 22.7 16.5 72 3.2 S 7 9 4 5 1015.0 1014.8 0.0
03/08:30pm 22.0 22.4 16.3 70 3.5 SSE 9 11 5 6 1014.4 1014.2 0.0
03/08:00pm 22.0 23.4 16.3 70 3.5 SE 4 11 2 6 1014.4 1014.2 0.0
03/07:30pm 22.4 23.1 16.0 67 3.9 E 7 11 4 6 1013.9 1013.7 0.0
03/07:00pm 22.8 23.4 15.9 65 4.2 E 7 11 4 6 1014.0 1013.8 0.0
03/06:30pm 23.1 22.5 15.7 63 4.5 ENE 13 17 7 9 1013.4 1013.2 0.0
03/06:00pm 23.5 23.3 15.8 62 4.7 E 11 17 6 9 1013.2 1013.0 0.0
03/05:30pm 24.2 23.1 15.4 58 5.3 E 15 22 8 12 1013.1 1012.9 0.0
03/05:00pm 24.5 23.0 15.4 57 5.5 ENE 17 22 9 12 1012.6 1012.4 0.0
03/04:30pm 25.4 23.4 15.4 54 6.1 ENE 20 30 11 16 1012.2 1012.0 0.0
03/04:00pm 26.4 24.6 15.4 50 6.7 ENE 19 26 10 14 1012.3 1012.1 0.0
03/03:30pm 28.0 28.4 16.3 49 7.3 N 9 13 5 7 1012.1 1011.9 0.0
03/03:00pm 28.4 28.6 15.7 46 7.8 NE 9 13 5 7 1012.4 1012.2 0.0
03/02:30pm 29.4 29.8 16.2 44 8.2 NE 9 17 5 9 1012.6 1012.4 0.0
03/02:00pm 28.5 28.3 14.7 43 8.4 N 9 15 5 8 1013.1 1012.9 0.0
03/01:30pm 27.9 28.0 15.5 46 7.6 ENE 9 19 5 10 1013.4 1013.2 0.0
03/01:00pm 27.8 28.2 16.4 50 7.1 NE 9 20 5 11 1013.8 1013.6 0.0
03/12:30pm 26.6 26.4 14.7 48 7.2 NE 9 15 5 8 1014.5 1014.3 0.0
03/12:00pm 25.8 25.2 13.6 47 7.2 NNE 9 15 5 8 1015.1 1014.9 0.0
03/11:30am 25.0 24.4 13.5 48 6.7 NE 9 17 5 9 1015.8 1015.5 0.0
03/11:00am 24.9 23.5 14.4 52 6.2 N 15 20 8 11 1016.0 1015.7 0.0
03/10:30am 23.8 21.6 13.4 52 6.1 N 17 22 9 12 1016.1 1015.8 0.0
03/10:00am 22.8 22.0 14.1 58 5.1 N 11 17 6 9 1016.2 1015.9 0.0
03/09:30am 20.7 21.2 13.9 65 3.9 NNE 4 7 2 4 1016.4 1016.1 0.0
03/09:00am 18.7 19.9 13.8 73 2.8 CALM 0 0 0 0 1016.4 1016.1 0.0
03/08:30am 17.4 18.8 14.3 82 1.8 CALM 0 0 0 0 1016.1 1015.8 0.0
03/08:00am 15.5 17.0 14.7 95 0.5 CALM 0 0 0 0 1015.9 1015.6 0.0
03/07:47am 15.2 16.8 14.9 98 0.2 CALM 0 0 0 0 1015.8 1015.5 0.0
03/07:30am 14.8 16.3 14.6 99 0.1 CALM 0 0 0 0 1015.8 1015.5 0.0
03/07:25am 14.7 16.1 14.5 99 0.1 CALM 0 0 0 0 1015.8 1015.5 0.0
03/07:00am 14.3 15.5 13.8 97 0.3 CALM 0 0 0 0 1015.6 1015.3 0.0
03/06:30am 14.1 15.2 13.5 96 0.3 CALM 0 0 0 0 1015.5 1015.2 0.0
03/06:00am 14.1 15.2 13.5 96 0.3 CALM 0 0 0 0 1015.1 1014.9 0.0
03/05:59am 14.5 15.7 13.9 96 0.3 CALM 0 0 0 0 1015.1 1014.9 0.0
03/05:55am 14.7 16.0 14.1 96 0.3 CALM 0 0 0 0 1015.0 1014.8 0.0
03/05:39am 14.8 16.1 14.2 96 0.3 CALM 0 0 0 0 1015.3 1015.1 0.0
03/05:30am 14.8 16.1 14.2 96 0.3 CALM 0 0 0 0 1015.1 1014.9 0.0
03/05:29am 14.9 16.2 14.1 95 0.5 CALM 0 0 0 0 1015.1 1014.9 0.0
03/05:16am 14.8 16.0 13.8 94 0.6 CALM 0 0 0 0 1015.1 1014.9 0.0
03/05:09am 14.8 16.0 13.8 94 0.6 CALM 0 0 0 0 1015.2 1015.0 0.0
03/05:01am 14.9 16.1 13.8 93 0.6 CALM 0 0 0 0 1015.3 1015.1 0.0
03/05:00am 14.8 16.0 13.7 93 0.6 CALM 0 0 0 0 1015.3 1015.1 0.0
03/04:30am 15.3 16.6 14.0 92 0.7 CALM 0 0 0 0 1015.2 1015.0 0.0
03/04:00am 15.8 17.2 14.3 91 0.9 CALM 0 0 0 0 1015.5 1015.2 0.0
03/03:30am 16.5 17.9 14.3 87 1.3 CALM 0 0 0 0 1015.7 1015.4 0.0
03/03:00am 17.3 18.6 14.2 82 1.8 CALM 0 0 0 0 1016.0 1015.7 0.0
03/02:30am 17.9 18.9 13.2 74 2.7 CALM 0 0 0 0 1016.3 1016.0 0.0
03/02:00am 18.7 19.9 13.8 73 2.8 CALM 0 0 0 0 1016.6 1016.3 0.0

Latest Capital City Observations: Canberra | Sydney | Melbourne | Brisbane | Adelaide | Perth | Hobart | Darwin

Other Formats:

Comma delimited format used in spreadsheet applications
http://www.bom.gov.au/fwo/IDN60901/IDN60901.94755.axf

JavaScript Object Notation format (JSON) in row-major order
http://www.bom.gov.au/fwo/IDN60901/IDN60901.94755.json